createdAt,value
2023-03-08T00:00:18.765Z,94070.38
2023-03-08T00:02:45.218Z,94061.34
2023-03-08T00:05:11.731Z,94061.94
2023-03-08T00:07:38.189Z,94057.25
2023-03-08T00:10:05.125Z,94056.84
2023-03-08T00:12:31.593Z,94058.00
2023-03-08T00:14:58.187Z,94059.19
2023-03-08T00:17:24.757Z,94054.38
2023-03-08T00:19:51.646Z,94057.56
2023-03-08T00:22:18.073Z,94058.00
2023-03-08T00:24:44.577Z,94059.03
2023-03-08T00:27:11.054Z,94053.78
2023-03-08T00:29:37.582Z,94062.25
2023-03-08T00:32:04.106Z,94060.63
2023-03-08T00:34:30.567Z,94061.22
2023-03-08T00:36:57.026Z,94050.56
2023-03-08T00:39:23.455Z,94044.16
2023-03-08T00:41:49.876Z,94044.28
2023-03-08T00:44:16.368Z,94041.81
2023-03-08T00:46:42.850Z,94034.97
2023-03-08T00:49:09.742Z,94033.41
2023-03-08T00:51:36.211Z,94022.09
2023-03-08T00:54:02.729Z,94025.53
2023-03-08T00:56:29.179Z,94025.91
2023-03-08T00:58:55.637Z,94015.19
2023-03-08T01:01:22.192Z,94027.78
2023-03-08T01:03:48.808Z,94017.22
2023-03-08T01:06:16.017Z,94020.84
2023-03-08T01:08:42.741Z,94021.22
2023-03-08T01:11:15.337Z,94017.34
2023-03-08T01:13:41.779Z,94015.97
2023-03-08T01:16:14.935Z,94023.81
2023-03-08T01:18:41.361Z,94018.94
2023-03-08T01:21:07.817Z,94016.69
2023-03-08T01:23:34.271Z,94015.91
2023-03-08T01:26:01.758Z,94012.25
2023-03-08T01:28:28.613Z,94019.31
2023-03-08T01:30:55.189Z,94018.16
2023-03-08T01:33:21.749Z,94016.03
2023-03-08T01:35:48.555Z,94011.69
2023-03-08T01:38:15.052Z,94022.09
2023-03-08T01:40:41.525Z,94018.66
2023-03-08T01:43:17.445Z,94014.59
2023-03-08T01:45:56.342Z,94023.84
2023-03-08T01:48:24.204Z,94021.81
2023-03-08T01:50:50.646Z,94022.63
2023-03-08T01:53:17.257Z,94029.00
2023-03-08T01:55:43.705Z,94024.94
2023-03-08T01:58:10.657Z,94036.00
2023-03-08T02:00:38.086Z,94032.38
2023-03-08T02:03:05.877Z,94036.56
2023-03-08T02:05:32.535Z,94034.97
2023-03-08T02:07:59.053Z,94034.97
2023-03-08T02:10:25.651Z,94032.38
2023-03-08T02:12:52.196Z,94042.25
2023-03-08T02:15:20.267Z,94034.63
2023-03-08T02:17:47.096Z,94035.28
2023-03-08T02:20:28.963Z,94038.38
2023-03-08T02:22:55.394Z,94028.94
2023-03-08T02:25:23.365Z,94040.72
2023-03-08T02:27:50.619Z,94031.03
2023-03-08T02:30:18.283Z,94027.59
2023-03-08T02:32:44.890Z,94023.97
2023-03-08T02:35:11.364Z,94026.81
2023-03-08T02:37:37.828Z,94020.41
2023-03-08T02:40:04.568Z,94031.31
2023-03-08T02:42:31.050Z,94026.94
2023-03-08T02:44:57.699Z,94038.28
2023-03-08T02:47:24.139Z,94038.13
2023-03-08T02:49:50.597Z,94044.81
2023-03-08T02:52:17.286Z,94031.53
2023-03-08T02:54:43.769Z,94036.03
2023-03-08T02:57:10.419Z,94045.13
2023-03-08T02:59:36.963Z,94035.28
2023-03-08T03:02:06.509Z,94042.19
2023-03-08T03:04:33.991Z,94041.81
2023-03-08T03:07:00.892Z,94033.38
2023-03-08T03:09:27.937Z,94047.69
2023-03-08T03:11:54.375Z,94049.72
2023-03-08T03:14:20.846Z,94053.56
2023-03-08T03:16:47.578Z,94058.38
2023-03-08T03:19:14.130Z,94052.56
2023-03-08T03:21:41.706Z,94060.22
2023-03-08T03:24:08.196Z,94053.81
2023-03-08T03:26:34.760Z,94053.44
2023-03-08T03:29:01.358Z,94058.50
2023-03-08T03:31:28.015Z,94055.56
2023-03-08T03:33:54.715Z,94051.31
2023-03-08T03:36:21.777Z,94047.31
2023-03-08T03:38:49.078Z,94049.50
2023-03-08T03:41:16.579Z,94051.75
2023-03-08T03:43:43.140Z,94054.41
2023-03-08T03:46:12.360Z,94060.69
2023-03-08T03:48:38.962Z,94066.13
2023-03-08T03:51:13.196Z,94062.72
2023-03-08T03:53:39.886Z,94060.31
2023-03-08T03:56:08.023Z,94063.94
2023-03-08T03:58:34.954Z,94057.88
2023-03-08T04:01:01.579Z,94053.06
2023-03-08T04:03:28.131Z,94067.00
2023-03-08T04:05:54.811Z,94061.63
2023-03-08T04:08:21.257Z,94058.22
2023-03-08T04:10:47.737Z,94067.50
2023-03-08T04:13:14.278Z,94073.75
2023-03-08T04:15:40.909Z,94073.56
2023-03-08T04:18:07.427Z,94078.78
2023-03-08T04:20:33.869Z,94082.59
2023-03-08T04:23:00.330Z,94085.44
2023-03-08T04:25:26.750Z,94092.66
2023-03-08T04:27:53.224Z,94094.66
2023-03-08T04:30:19.725Z,94083.00
2023-03-08T04:32:46.187Z,94092.47
2023-03-08T04:35:12.751Z,94093.09
2023-03-08T04:37:40.237Z,94110.00
2023-03-08T04:40:09.422Z,94109.56
2023-03-08T04:42:35.992Z,94120.44
2023-03-08T04:45:02.510Z,94123.47
2023-03-08T04:47:29.062Z,94122.84
2023-03-08T04:49:55.515Z,94116.81
2023-03-08T04:52:21.957Z,94114.81
2023-03-08T04:54:48.429Z,94117.63
2023-03-08T04:57:14.864Z,94126.50
2023-03-08T04:59:43.209Z,94121.88
2023-03-08T05:02:09.715Z,94126.06
2023-03-08T05:04:36.239Z,94113.56
2023-03-08T05:07:02.772Z,94115.47
2023-03-08T05:09:29.192Z,94125.91
2023-03-08T05:11:55.659Z,94113.41
2023-03-08T05:14:22.166Z,94117.53
2023-03-08T05:16:48.587Z,94115.06
2023-03-08T05:19:15.079Z,94115.44
2023-03-08T05:21:41.619Z,94122.84
2023-03-08T05:24:08.069Z,94128.69
2023-03-08T05:26:34.560Z,94132.47
2023-03-08T05:29:03.487Z,94136.50
2023-03-08T05:31:29.946Z,94144.97
2023-03-08T05:33:56.379Z,94133.25
2023-03-08T05:36:22.852Z,94139.25
2023-03-08T05:38:52.895Z,94128.75
2023-03-08T05:41:19.320Z,94126.75
2023-03-08T05:43:45.765Z,94132.38
2023-03-08T05:46:13.301Z,94141.28
2023-03-08T05:48:39.841Z,94139.88
2023-03-08T05:51:06.936Z,94144.09
2023-03-08T05:53:33.464Z,94149.72
2023-03-08T05:56:10.614Z,94150.91
2023-03-08T05:58:37.239Z,94155.34
2023-03-08T06:01:11.200Z,94161.97
2023-03-08T06:03:37.856Z,94169.00
2023-03-08T06:06:04.745Z,94171.56
2023-03-08T06:08:31.385Z,94180.81
2023-03-08T06:10:57.859Z,94191.50
2023-03-08T06:13:24.344Z,94197.69
2023-03-08T06:15:53.858Z,94212.97
2023-03-08T06:18:20.316Z,94217.19
2023-03-08T06:20:55.421Z,94221.00
2023-03-08T06:23:21.849Z,94230.03
2023-03-08T06:25:48.365Z,94230.41
2023-03-08T06:28:14.924Z,94236.84
2023-03-08T06:30:41.432Z,94242.91
2023-03-08T06:33:07.951Z,94234.59
2023-03-08T06:35:34.755Z,94242.03
2023-03-08T06:38:01.219Z,94233.50
2023-03-08T06:40:27.643Z,94242.41
2023-03-08T06:42:54.222Z,94240.75
2023-03-08T06:45:20.710Z,94240.75
2023-03-08T06:47:47.183Z,94241.38
2023-03-08T06:50:13.693Z,94246.41
2023-03-08T06:52:40.256Z,94246.78
2023-03-08T06:55:07.152Z,94248.38
2023-03-08T06:57:33.646Z,94242.25
2023-03-08T07:00:00.182Z,94246.72
2023-03-08T07:02:26.657Z,94246.28
2023-03-08T07:04:53.131Z,94255.34
2023-03-08T07:07:19.651Z,94256.50
2023-03-08T07:09:46.216Z,94259.72
2023-03-08T07:12:12.696Z,94253.44
2023-03-08T07:14:39.196Z,94256.28
2023-03-08T07:17:05.659Z,94252.88
2023-03-08T07:19:32.120Z,94257.03
2023-03-08T07:21:58.600Z,94259.81
2023-03-08T07:24:25.029Z,94264.06
2023-03-08T07:26:51.485Z,94257.13
2023-03-08T07:29:18.463Z,94263.34
2023-03-08T07:31:44.948Z,94267.59
2023-03-08T07:34:12.013Z,94266.13
2023-03-08T07:36:40.417Z,94266.88
2023-03-08T07:39:06.924Z,94264.41
2023-03-08T07:41:34.759Z,94259.50
2023-03-08T07:44:02.541Z,94264.69
2023-03-08T07:46:29.314Z,94274.53
2023-03-08T07:48:55.904Z,94276.69
2023-03-08T07:51:22.566Z,94273.31
2023-03-08T07:53:49.060Z,94290.03
2023-03-08T07:56:15.559Z,94279.22
2023-03-08T07:58:42.163Z,94280.78
2023-03-08T08:01:10.109Z,94287.19
2023-03-08T08:03:37.850Z,94280.00
2023-03-08T08:06:05.329Z,94288.63
2023-03-08T08:08:31.985Z,94276.44
2023-03-08T08:10:58.557Z,94287.09
2023-03-08T08:13:24.984Z,94290.09
2023-03-08T08:15:58.966Z,94285.44
2023-03-08T08:18:25.424Z,94299.72
2023-03-08T08:20:59.226Z,94295.28
2023-03-08T08:23:25.662Z,94298.84
2023-03-08T08:25:52.085Z,94293.16
2023-03-08T08:28:18.575Z,94287.00
2023-03-08T08:30:45.029Z,94292.28
2023-03-08T08:33:11.493Z,94305.56
2023-03-08T08:35:43.388Z,94305.00
2023-03-08T08:38:10.024Z,94304.34
2023-03-08T08:40:36.973Z,94306.97
2023-03-08T08:43:03.415Z,94306.66
2023-03-08T08:45:29.881Z,94312.41
2023-03-08T08:47:56.408Z,94318.38
2023-03-08T08:50:22.827Z,94312.22
2023-03-08T08:52:49.296Z,94321.06
2023-03-08T08:55:15.811Z,94331.59
2023-03-08T08:57:42.255Z,94323.81
2023-03-08T09:00:09.963Z,94320.94
2023-03-08T09:02:36.897Z,94326.00
2023-03-08T09:05:03.875Z,94324.72
2023-03-08T09:07:30.364Z,94322.53
2023-03-08T09:09:57.301Z,94323.34
2023-03-08T09:12:23.763Z,94317.50
2023-03-08T09:14:50.236Z,94309.84
2023-03-08T09:17:16.672Z,94314.63
2023-03-08T09:19:43.129Z,94322.00
2023-03-08T09:22:09.599Z,94333.22
2023-03-08T09:24:36.033Z,94324.19
2023-03-08T09:27:04.888Z,94334.97
2023-03-08T09:29:31.323Z,94326.94
2023-03-08T09:31:58.834Z,94340.81
2023-03-08T09:34:25.477Z,94326.88
2023-03-08T09:36:52.286Z,94337.94
2023-03-08T09:39:18.749Z,94328.69
2023-03-08T09:41:45.280Z,94324.53
2023-03-08T09:44:11.749Z,94320.91
2023-03-08T09:46:41.887Z,94334.41
2023-03-08T09:49:12.636Z,94326.94
2023-03-08T09:51:40.918Z,94340.34
2023-03-08T09:54:10.608Z,94329.34
2023-03-08T09:56:43.688Z,94325.69
2023-03-08T09:59:14.685Z,94328.81
2023-03-08T10:01:41.255Z,94326.41
2023-03-08T10:04:10.860Z,94316.88
2023-03-08T10:06:43.689Z,94326.94
2023-03-08T10:09:19.449Z,94307.59
2023-03-08T10:12:02.574Z,94305.78
2023-03-08T10:14:34.644Z,94299.56
2023-03-08T10:17:04.823Z,94295.31
2023-03-08T10:19:41.277Z,94298.75
2023-03-08T10:22:23.051Z,94294.47
2023-03-08T10:24:52.421Z,94306.97
2023-03-08T10:27:21.132Z,94306.28
2023-03-08T10:29:48.403Z,94291.69
2023-03-08T10:32:14.921Z,94292.03
2023-03-08T10:34:41.758Z,94278.94
2023-03-08T10:37:09.854Z,94285.00
2023-03-08T10:39:37.282Z,94287.84
2023-03-08T10:42:13.608Z,94287.72
2023-03-08T10:44:52.297Z,94294.56
2023-03-08T10:47:18.712Z,94293.22
2023-03-08T10:49:47.288Z,94290.34
2023-03-08T10:52:25.521Z,94278.50
2023-03-08T10:55:24.259Z,94277.72
2023-03-08T10:57:55.473Z,94266.84
2023-03-08T11:00:34.359Z,94267.94
2023-03-08T11:03:10.063Z,94259.00
2023-03-08T11:05:36.932Z,94272.75
2023-03-08T11:08:04.275Z,94270.19
2023-03-08T11:10:32.355Z,94264.72
2023-03-08T11:13:03.029Z,94257.31
2023-03-08T11:15:31.000Z,94255.16
2023-03-08T11:18:03.497Z,94240.47
2023-03-08T11:20:39.252Z,94240.81
2023-03-08T11:23:11.812Z,94240.91
2023-03-08T11:25:44.345Z,94235.97
2023-03-08T11:28:16.830Z,94227.81
2023-03-08T11:30:52.420Z,94228.81
2023-03-08T11:33:31.760Z,94223.63
2023-03-08T11:36:16.798Z,94225.31
2023-03-08T11:38:46.585Z,94214.75
2023-03-08T11:41:21.137Z,94219.47
2023-03-08T11:43:55.291Z,94213.16
2023-03-08T11:46:40.533Z,94209.56
2023-03-08T11:49:07.027Z,94216.50
2023-03-08T11:51:38.557Z,94219.63
2023-03-08T11:54:04.989Z,94223.09
2023-03-08T11:56:31.719Z,94211.72
2023-03-08T11:59:27.658Z,94211.16
2023-03-08T12:02:02.621Z,94206.09
2023-03-08T12:04:32.526Z,94197.47
2023-03-08T12:07:02.166Z,94197.06
2023-03-08T12:09:36.197Z,94191.38
2023-03-08T12:12:11.523Z,94183.53
2023-03-08T12:14:44.688Z,94198.50
2023-03-08T12:17:18.062Z,94189.66
2023-03-08T12:19:46.106Z,94183.94
2023-03-08T12:22:12.505Z,94170.28
2023-03-08T12:24:38.945Z,94168.22
2023-03-08T12:27:12.787Z,94174.75
2023-03-08T12:29:49.894Z,94177.59
2023-03-08T12:32:18.034Z,94175.56
2023-03-08T12:34:45.905Z,94179.13
2023-03-08T12:37:25.967Z,94182.56
2023-03-08T12:40:00.521Z,94177.81
2023-03-08T12:42:38.227Z,94169.34
2023-03-08T12:45:19.916Z,94177.03
2023-03-08T12:48:17.663Z,94177.81
2023-03-08T12:50:46.462Z,94174.75
2023-03-08T12:53:39.185Z,94180.16
2023-03-08T12:56:26.640Z,94178.59
2023-03-08T12:58:56.382Z,94186.66
2023-03-08T13:01:28.969Z,94184.06
2023-03-08T13:03:55.802Z,94182.94
2023-03-08T13:06:37.603Z,94177.09
2023-03-08T13:09:18.706Z,94172.31
2023-03-08T13:11:47.970Z,94164.38
2023-03-08T13:14:25.314Z,94152.47
2023-03-08T13:16:51.839Z,94140.59
2023-03-08T13:19:23.224Z,94139.47
2023-03-08T13:22:10.021Z,94149.56
2023-03-08T13:24:40.982Z,94143.09
2023-03-08T13:27:10.482Z,94150.47
2023-03-08T13:29:36.974Z,94156.84
2023-03-08T13:32:20.329Z,94149.97
2023-03-08T13:35:02.981Z,94149.19
2023-03-08T13:37:30.067Z,94147.88
2023-03-08T13:39:57.787Z,94142.91
2023-03-08T13:42:25.557Z,94146.34
2023-03-08T13:44:52.495Z,94136.59
2023-03-08T13:47:23.856Z,94123.31
2023-03-08T13:49:52.127Z,94123.00
2023-03-08T13:52:29.429Z,94124.00
2023-03-08T13:54:57.638Z,94118.97
2023-03-08T13:57:27.133Z,94123.81
2023-03-08T13:59:55.251Z,94131.03
2023-03-08T14:02:26.499Z,94126.50
2023-03-08T14:04:53.741Z,94118.81
2023-03-08T14:07:24.574Z,94120.00
2023-03-08T14:09:51.130Z,94114.91
2023-03-08T14:12:22.012Z,94113.13
2023-03-08T14:14:51.490Z,94120.50
2023-03-08T14:17:23.597Z,94123.88
2023-03-08T14:19:55.240Z,94127.53
2023-03-08T14:22:37.678Z,94122.03
2023-03-08T14:25:05.830Z,94117.50
2023-03-08T14:27:40.939Z,94105.34
2023-03-08T14:30:12.353Z,94120.00
2023-03-08T14:32:39.651Z,94121.97
2023-03-08T14:35:07.929Z,94125.69
2023-03-08T14:37:34.985Z,94121.38
2023-03-08T14:40:24.280Z,94111.78
2023-03-08T14:42:55.846Z,94107.00
2023-03-08T14:45:32.560Z,94107.50
2023-03-08T14:48:00.257Z,94104.91
2023-03-08T14:50:26.821Z,94106.19
2023-03-08T14:52:55.006Z,94095.81
2023-03-08T14:55:22.049Z,94090.22
2023-03-08T14:57:48.622Z,94098.75
2023-03-08T15:00:15.991Z,94099.97
2023-03-08T15:02:43.515Z,94094.06
2023-03-08T15:05:28.041Z,94093.47
2023-03-08T15:07:55.881Z,94085.63
2023-03-08T15:10:25.607Z,94087.50
2023-03-08T15:12:52.098Z,94089.09
2023-03-08T15:15:18.642Z,94082.47
2023-03-08T15:17:45.111Z,94075.50
2023-03-08T15:20:12.423Z,94072.88
2023-03-08T15:22:59.584Z,94067.06
2023-03-08T15:25:27.512Z,94058.81
2023-03-08T15:27:53.952Z,94053.47
2023-03-08T15:30:21.746Z,94061.56
2023-03-08T15:32:48.696Z,94059.41
2023-03-08T15:35:15.531Z,94054.25
2023-03-08T15:37:42.644Z,94052.66
2023-03-08T15:40:17.328Z,94056.66
2023-03-08T15:42:44.073Z,94056.25
2023-03-08T15:45:11.934Z,94064.94
2023-03-08T15:47:38.670Z,94059.19
2023-03-08T15:50:06.940Z,94052.31
2023-03-08T15:52:33.400Z,94069.44
2023-03-08T15:54:59.848Z,94066.81
2023-03-08T15:57:26.311Z,94072.81
2023-03-08T15:59:52.842Z,94082.44
2023-03-08T16:02:20.196Z,94086.56
2023-03-08T16:04:49.106Z,94087.97
2023-03-08T16:07:16.441Z,94097.50
2023-03-08T16:09:43.134Z,94094.47
2023-03-08T16:12:12.510Z,94095.66
2023-03-08T16:14:39.037Z,94088.06
2023-03-08T16:17:06.370Z,94087.28
2023-03-08T16:19:33.846Z,94075.59
2023-03-08T16:22:01.331Z,94075.38
2023-03-08T16:24:28.016Z,94068.75
2023-03-08T16:26:54.573Z,94075.84
2023-03-08T16:29:21.562Z,94075.03
2023-03-08T16:31:48.686Z,94077.28
2023-03-08T16:34:15.818Z,94075.94
2023-03-08T16:36:42.432Z,94079.50
2023-03-08T16:39:09.289Z,94067.66
2023-03-08T16:41:36.597Z,94075.47
2023-03-08T16:44:03.493Z,94067.97
2023-03-08T16:46:30.123Z,94065.47
2023-03-08T16:48:57.175Z,94070.19
2023-03-08T16:51:24.987Z,94065.81
2023-03-08T16:53:51.690Z,94074.28
2023-03-08T16:56:22.363Z,94059.47
2023-03-08T16:58:48.880Z,94061.25
2023-03-08T17:01:16.606Z,94065.00
2023-03-08T17:03:43.264Z,94045.88
2023-03-08T17:06:10.926Z,94046.22
2023-03-08T17:08:37.575Z,94045.19
2023-03-08T17:11:06.189Z,94046.59
2023-03-08T17:13:33.091Z,94053.84
2023-03-08T17:15:59.575Z,94050.66
2023-03-08T17:18:26.194Z,94048.59
2023-03-08T17:20:53.060Z,94057.53
2023-03-08T17:23:19.898Z,94052.75
2023-03-08T17:25:46.503Z,94045.38
2023-03-08T17:28:12.977Z,94043.53
2023-03-08T17:30:39.583Z,94027.41
2023-03-08T17:33:06.031Z,94033.72
2023-03-08T17:35:32.618Z,94034.19
2023-03-08T17:37:59.218Z,94027.22
2023-03-08T17:40:25.694Z,94020.91
2023-03-08T17:42:52.233Z,94034.19
2023-03-08T17:45:18.836Z,94039.34
2023-03-08T17:47:45.384Z,94036.59
2023-03-08T17:50:15.209Z,94051.13
2023-03-08T17:52:42.029Z,94034.66
2023-03-08T17:55:08.812Z,94046.81
2023-03-08T17:57:36.055Z,94037.53
2023-03-08T18:00:02.682Z,94037.84
2023-03-08T18:02:29.179Z,94044.28
2023-03-08T18:04:56.618Z,94044.50
2023-03-08T18:07:24.925Z,94040.25
2023-03-08T18:09:51.359Z,94036.19
2023-03-08T18:12:17.818Z,94035.13
2023-03-08T18:14:45.385Z,94036.88
2023-03-08T18:17:12.379Z,94043.50
2023-03-08T18:19:38.914Z,94039.59
2023-03-08T18:22:05.730Z,94034.09
2023-03-08T18:24:32.240Z,94041.78
2023-03-08T18:26:58.722Z,94036.28
2023-03-08T18:29:25.207Z,94019.31
2023-03-08T18:31:52.966Z,94027.69
2023-03-08T18:34:19.463Z,94029.84
2023-03-08T18:36:45.958Z,94033.78
2023-03-08T18:39:12.936Z,94023.13
2023-03-08T18:41:39.738Z,94032.41
2023-03-08T18:44:06.485Z,94028.28
2023-03-08T18:46:33.582Z,94034.00
2023-03-08T18:49:01.436Z,94028.72
2023-03-08T18:51:28.521Z,94027.94
2023-03-08T18:53:55.964Z,94028.09
2023-03-08T18:56:23.276Z,94024.06
2023-03-08T18:58:49.796Z,94027.44
2023-03-08T19:01:17.211Z,94013.69
2023-03-08T19:03:44.546Z,94026.84
2023-03-08T19:06:11.955Z,94007.28
2023-03-08T19:08:38.836Z,94013.69
2023-03-08T19:11:15.829Z,94019.66
2023-03-08T19:13:42.888Z,94024.13
2023-03-08T19:16:26.193Z,94008.88
2023-03-08T19:18:54.104Z,94002.47
2023-03-08T19:21:22.625Z,93990.81
2023-03-08T19:23:49.632Z,93996.31
2023-03-08T19:26:47.623Z,93989.47
2023-03-08T19:29:16.012Z,93995.88
2023-03-08T19:31:48.752Z,94000.38
2023-03-08T19:34:15.330Z,94006.78
2023-03-08T19:36:43.235Z,94005.53
2023-03-08T19:39:11.126Z,94000.56
2023-03-08T19:41:37.641Z,93988.47
2023-03-08T19:44:07.214Z,93982.13
2023-03-08T19:46:34.409Z,93975.75
2023-03-08T19:49:00.905Z,93965.94
2023-03-08T19:51:27.428Z,93960.56
2023-03-08T19:53:54.098Z,93966.97
2023-03-08T19:56:20.971Z,93962.88
2023-03-08T19:58:48.062Z,93959.16
2023-03-08T20:01:15.899Z,93949.28
2023-03-08T20:03:42.872Z,93947.03
2023-03-08T20:06:09.935Z,93957.69
2023-03-08T20:08:37.242Z,93952.78
2023-03-08T20:11:04.532Z,93963.75
2023-03-08T20:13:31.069Z,93951.84
2023-03-08T20:15:58.249Z,93947.16
2023-03-08T20:18:25.858Z,93953.59
2023-03-08T20:20:53.278Z,93949.56
2023-03-08T20:23:19.755Z,93944.97
2023-03-08T20:25:46.312Z,93939.63
2023-03-08T20:28:12.905Z,93943.63
2023-03-08T20:30:39.463Z,93945.69
2023-03-08T20:33:06.053Z,93936.09
2023-03-08T20:35:32.559Z,93940.22
2023-03-08T20:37:59.072Z,93936.56
2023-03-08T20:40:25.525Z,93932.91
2023-03-08T20:42:52.243Z,93929.03
2023-03-08T20:45:18.812Z,93909.47
2023-03-08T20:47:46.611Z,93901.13
2023-03-08T20:50:13.072Z,93897.34
2023-03-08T20:52:39.515Z,93892.09
2023-03-08T20:55:06.152Z,93875.63
2023-03-08T20:57:32.719Z,93880.88
2023-03-08T20:59:59.186Z,93881.22
2023-03-08T21:02:25.732Z,93877.69
2023-03-08T21:04:52.239Z,93865.94
2023-03-08T21:07:18.726Z,93873.25
2023-03-08T21:09:45.206Z,93873.25
2023-03-08T21:12:11.782Z,93869.25
2023-03-08T21:14:38.301Z,93880.53
2023-03-08T21:17:04.771Z,93872.56
2023-03-08T21:19:31.238Z,93881.00
2023-03-08T21:21:57.742Z,93870.50
2023-03-08T21:24:24.316Z,93863.31
2023-03-08T21:26:52.020Z,93864.31
2023-03-08T21:29:19.722Z,93859.66
2023-03-08T21:31:48.559Z,93857.59
2023-03-08T21:34:15.185Z,93858.88
2023-03-08T21:36:41.970Z,93844.56
2023-03-08T21:39:08.490Z,93848.44
2023-03-08T21:41:36.616Z,93841.75
2023-03-08T21:44:04.742Z,93830.19
2023-03-08T21:46:31.626Z,93839.34
2023-03-08T21:48:58.230Z,93829.75
2023-03-08T21:51:24.706Z,93832.59
2023-03-08T21:53:51.156Z,93828.75
2023-03-08T21:56:18.270Z,93824.16
2023-03-08T21:58:44.762Z,93827.81
2023-03-08T22:01:21.834Z,93819.94
2023-03-08T22:03:48.795Z,93821.16
2023-03-08T22:06:15.302Z,93819.13
2023-03-08T22:08:41.757Z,93828.81
2023-03-08T22:11:08.265Z,93829.28
2023-03-08T22:13:35.122Z,93826.56
2023-03-08T22:16:01.765Z,93823.00
2023-03-08T22:18:28.290Z,93820.72
2023-03-08T22:20:54.884Z,93827.81
2023-03-08T22:23:21.655Z,93820.25
2023-03-08T22:25:48.093Z,93818.88
2023-03-08T22:28:14.580Z,93804.81
2023-03-08T22:30:41.128Z,93815.25
2023-03-08T22:33:08.029Z,93816.38
2023-03-08T22:35:34.716Z,93810.00
2023-03-08T22:38:01.333Z,93806.31
2023-03-08T22:40:27.826Z,93817.28
2023-03-08T22:42:54.249Z,93810.28
2023-03-08T22:45:20.665Z,93816.88
2023-03-08T22:47:47.135Z,93815.19
2023-03-08T22:50:13.755Z,93822.13
2023-03-08T22:52:40.311Z,93811.31
2023-03-08T22:55:06.971Z,93808.88
2023-03-08T22:57:35.627Z,93792.00
2023-03-08T23:00:02.210Z,93799.53
2023-03-08T23:02:30.457Z,93796.69
2023-03-08T23:04:57.958Z,93793.47
2023-03-08T23:07:24.426Z,93793.06
2023-03-08T23:09:50.975Z,93795.56
2023-03-08T23:12:17.432Z,93792.34
2023-03-08T23:14:47.113Z,93790.75
2023-03-08T23:17:13.590Z,93801.69
2023-03-08T23:19:45.015Z,93799.03
2023-03-08T23:22:12.342Z,93787.59
2023-03-08T23:24:38.856Z,93789.09
2023-03-08T23:27:05.749Z,93791.91
2023-03-08T23:29:32.234Z,93798.22
2023-03-08T23:31:58.721Z,93796.41
2023-03-08T23:34:25.292Z,93781.78
2023-03-08T23:36:51.781Z,93776.41
2023-03-08T23:39:18.249Z,93771.03
2023-03-08T23:41:45.345Z,93771.41
2023-03-08T23:44:12.249Z,93768.31
2023-03-08T23:46:38.728Z,93769.72
2023-03-08T23:49:05.387Z,93756.94
2023-03-08T23:51:32.469Z,93768.78
2023-03-08T23:54:00.179Z,93755.69
2023-03-08T23:56:30.034Z,93761.16
2023-03-08T23:59:01.400Z,93759.13
